»·PEaware :: RAP61 KPSP-KMYF

RAP61 :: KPSP-KMYF

FLIGHT INFORMATION

Flight Status: Arrived
Operator: Unknown
More flights by this operator :: More flights under this callsign
Pilot: Mike N. (15036)
Aircraft: BELL TEXTRON MODEL 412
(B412)
More flights by this aircraft type
Origin: KPSP Palm Springs Intl
United States
Destination: KMYF Montgomery
United States
More flights between these airports :: More routes between these airports
Route: TRM6 TRM V514 CANNO
File this flight plan on PilotEdge
Remarks:
Altitude:
(Current/Filed)
9,000ft
Speed:
(Current/Filed)
125kts
Departed: 19-Dec-17 09:10 PM
Arrived: 19-Dec-17 10:01 PM
Distance/Time
Traveled:
69nm/0:50
Distance/Time
To Go:
Arrived

Flight Plot

Page will automatically refresh every two minutes.

Flight plan parsing failed; only flown route is shown


Map Options




Map Legend


Flown Route
Filed Route
Departure Airport
Arrival Airport
Navaid (VOR, NDB)
Fix

Horizontal Profiles

Position Reports

Time Latitude Longitude Heading Altitude Ground
Speed
19-Dec-17 20:59 33.827783 -116.508903 272 482ft 0kts
19-Dec-17 21:00 33.827783 -116.508903 272 482ft 0kts
19-Dec-17 21:01 33.827783 -116.508903 272 482ft 0kts
19-Dec-17 21:02 33.827783 -116.508903 272 482ft 0kts
19-Dec-17 21:03 33.827783 -116.508903 272 482ft 0kts
19-Dec-17 21:04 33.827783 -116.508903 272 482ft 0kts
19-Dec-17 21:05 33.827783 -116.508903 272 482ft 0kts
19-Dec-17 21:06 33.827783 -116.508903 272 482ft 0kts
19-Dec-17 21:07 33.827783 -116.508903 272 482ft 0kts
19-Dec-17 21:08 33.827783 -116.508903 272 482ft 0kts
19-Dec-17 21:09 33.827783 -116.508903 272 482ft 0kts
19-Dec-17 21:10 33.827783 -116.508903 272 482ft 0kts
19-Dec-17 21:11 33.827783 -116.508903 272 482ft 0kts
19-Dec-17 21:12 33.827783 -116.508903 272 482ft 0kts
19-Dec-17 21:13 33.827783 -116.508903 272 482ft 0kts
19-Dec-17 21:14 33.827783 -116.508903 272 482ft 0kts
19-Dec-17 21:15 33.827706 -116.508869 3 486ft 0kts
19-Dec-17 21:16 33.833854 -116.507337 42 1095ft 55kts
19-Dec-17 21:17 33.830529 -116.485967 96 2511ft 75kts
19-Dec-17 21:18 33.825409 -116.459475 101 3760ft 82kts
19-Dec-17 21:19 33.821162 -116.430989 94 4910ft 89kts
19-Dec-17 21:20 33.808137 -116.402779 133 5851ft 95kts
19-Dec-17 21:21 33.790231 -116.378973 125 6823ft 104kts
19-Dec-17 21:22 33.772063 -116.351054 126 7801ft 99kts
19-Dec-17 21:23 33.754898 -116.324710 129 8785ft 101kts
19-Dec-17 21:24 33.731926 -116.293813 132 8909ft 135kts
19-Dec-17 21:25 33.705334 -116.261604 133 8946ft 142kts
19-Dec-17 21:26 33.679285 -116.227741 131 8985ft 138kts
19-Dec-17 21:27 33.654081 -116.192428 131 8954ft 136kts
19-Dec-17 21:28 33.624459 -116.165681 175 8876ft 138kts
19-Dec-17 21:29 33.595003 -116.185718 221 9004ft 126kts
19-Dec-17 21:30 33.568806 -116.213264 221 9040ft 126kts
19-Dec-17 21:31 33.540238 -116.238532 220 9006ft 128kts
19-Dec-17 21:32 33.511295 -116.263377 218 8986ft 128kts
19-Dec-17 21:33 33.482627 -116.288538 218 8995ft 128kts
19-Dec-17 21:34 33.455303 -116.311306 219 9018ft 127kts
19-Dec-17 21:35 33.427013 -116.336576 221 9023ft 126kts
19-Dec-17 21:36 33.398753 -116.363029 221 8981ft 127kts
19-Dec-17 21:37 33.369868 -116.387101 218 9039ft 126kts
19-Dec-17 21:38 33.340906 -116.410896 220 9056ft 130kts
19-Dec-17 21:39 33.312310 -116.437557 221 8983ft 127kts
19-Dec-17 21:40 33.283067 -116.460562 212 9049ft 126kts
19-Dec-17 21:41 33.251728 -116.481459 215 8989ft 129kts
19-Dec-17 21:42 33.222860 -116.505487 220 9048ft 125kts
19-Dec-17 21:43 33.195084 -116.529926 216 8970ft 123kts
19-Dec-17 21:44 33.165517 -116.553487 219 8906ft 134kts
19-Dec-17 21:45 33.136763 -116.580420 220 8965ft 127kts
19-Dec-17 21:46 33.105233 -116.601284 208 8728ft 134kts
19-Dec-17 21:47 33.070908 -116.619649 208 8272ft 135kts
19-Dec-17 21:48 33.039491 -116.643340 220 8042ft 129kts
19-Dec-17 21:49 33.011570 -116.669798 218 7842ft 136kts
19-Dec-17 21:50 32.978872 -116.694671 211 7075ft 145kts
19-Dec-17 21:51 32.945166 -116.716854 207 6163ft 130kts
19-Dec-17 21:52 32.914820 -116.738549 213 6014ft 124kts
19-Dec-17 21:53 32.885845 -116.761773 217 5941ft 129kts
19-Dec-17 21:54 32.857070 -116.787192 217 5125ft 129kts
19-Dec-17 21:55 32.828794 -116.808301 211 4879ft 113kts
19-Dec-17 21:56 32.800287 -116.826906 210 4209ft 115kts
19-Dec-17 21:57 32.772255 -116.845675 212 4191ft 117kts
19-Dec-17 21:58 32.744232 -116.865764 213 4225ft 117kts
19-Dec-17 21:59 32.720490 -116.889556 266 4153ft 114kts
19-Dec-17 22:00 32.732492 -116.924392 297 3575ft 113kts
19-Dec-17 22:01 32.745122 -116.956908 292 3505ft 105kts
19-Dec-17 22:02 32.757354 -116.991475 293 3229ft 113kts
19-Dec-17 22:03 32.771110 -117.025939 297 2468ft 118kts
19-Dec-17 22:04 32.785157 -117.059324 294 1817ft 111kts
19-Dec-17 22:05 32.797459 -117.091417 294 1220ft 113kts
19-Dec-17 22:06 32.809621 -117.123042 298 678ft 81kts
19-Dec-17 22:07 32.815001 -117.136544 300 443ft 17kts
19-Dec-17 22:08 32.814817 -117.142172 217 451ft 17kts
19-Dec-17 22:09 32.814590 -117.141943 26 431ft 0kts
19-Dec-17 22:10 32.814160 -117.141617 4 431ft 0kts
19-Dec-17 22:11 32.814148 -117.141673 28 439ft 5kts
19-Dec-17 22:12 32.814200 -117.141755 24 431ft 0kts
19-Dec-17 22:13 32.814200 -117.141755 24 431ft 0kts
19-Dec-17 22:14 32.814200 -117.141755 24 431ft 0kts

Navigation Log

Ident Type
Flight plan parsing failed, navigation log unavailable